Time;durP1;ratioP1;P1;durP2;ratioP2;P2;SDS_P1;SDS_P2;PMS_P1;PMS_P2;Temp;Humidity;BMP_temperature;BMP_pressure;BME280_temperature;BME280_humidity;BME280_pressure;Samples;Min_cycle;Max_cycle;Signal;HPM_P1;HPM_P2
2021/06/16 00:00:11;;;;;;;4.78;1.90;;;20.00;61.70;;;;;;5071751;28;20128;-61
2021/06/16 00:02:37;;;;;;;9.07;2.08;;;20.00;61.00;;;;;;5072085;28;20104;-60
2021/06/16 00:05:10;;;;;;;8.32;2.20;;;20.00;61.20;;;;;;5071644;28;20111;-60
2021/06/16 00:07:36;;;;;;;7.03;2.03;;;20.00;60.80;;;;;;5071747;28;20031;-60
2021/06/16 00:10:04;;;;;;;6.82;1.70;;;20.00;61.90;;;;;;5053773;28;20025;-60
2021/06/16 00:12:29;;;;;;;5.60;1.90;;;20.00;62.40;;;;;;5071801;28;20024;-60
2021/06/16 00:14:55;;;;;;;4.88;1.55;;;20.00;61.80;;;;;;5071170;28;20024;-60
2021/06/16 00:17:20;;;;;;;7.03;2.03;;;20.00;61.10;;;;;;5053785;28;20052;-60
2021/06/16 00:19:46;;;;;;;6.85;1.80;;;19.90;61.40;;;;;;5053588;28;20063;-60
2021/06/16 00:22:12;;;;;;;9.20;1.90;;;20.00;61.70;;;;;;5053707;28;20425;-60
2021/06/16 00:24:38;;;;;;;6.43;1.95;;;20.00;61.80;;;;;;5053403;28;20021;-60
2021/06/16 00:27:04;;;;;;;6.53;1.92;;;20.00;61.20;;;;;;5053789;28;20029;-60
2021/06/16 00:29:29;;;;;;;9.25;2.00;;;19.90;61.90;;;;;;5071258;28;20025;-60
2021/06/16 00:31:55;;;;;;;9.25;2.15;;;19.90;61.70;;;;;;5071585;28;20032;-61
2021/06/16 00:34:21;;;;;;;5.78;1.77;;;19.80;62.20;;;;;;5053075;28;20019;-60
2021/06/16 00:36:46;;;;;;;6.47;2.10;;;19.80;61.70;;;;;;5070949;28;20081;-61
2021/06/16 00:39:12;;;;;;;7.18;2.55;;;19.70;61.50;;;;;;5071363;28;20033;-59
2021/06/16 00:41:38;;;;;;;7.00;2.25;;;19.80;61.90;;;;;;5071541;28;20032;-61
2021/06/16 00:44:04;;;;;;;6.45;2.05;;;19.80;61.60;;;;;;5071289;28;20036;-60
2021/06/16 00:46:31;;;;;;;6.00;2.15;;;19.70;62.00;;;;;;5053176;28;20405;-60
2021/06/16 00:48:57;;;;;;;6.93;2.20;;;19.70;62.20;;;;;;5053453;28;20017;-60
2021/06/16 00:51:22;;;;;;;8.35;2.50;;;19.70;61.80;;;;;;5052748;28;20029;-60
2021/06/16 00:53:48;;;;;;;5.70;2.00;;;19.70;61.80;;;;;;5071043;28;20071;-61
2021/06/16 00:56:14;;;;;;;6.40;2.20;;;19.60;62.80;;;;;;5053402;28;20016;-61
2021/06/16 00:58:40;;;;;;;5.55;2.05;;;19.60;62.80;;;;;;5071354;28;20024;-60
2021/06/16 01:01:20;;;;;;;5.18;1.73;;;19.60;62.90;;;;;;5053286;28;20089;-60
2021/06/16 01:03:58;;;;;;;5.32;2.00;;;19.70;62.90;;;;;;5071135;28;20028;-60
2021/06/16 01:06:34;;;;;;;5.35;2.20;;;19.70;62.70;;;;;;5071378;28;20103;-60
2021/06/16 01:09:11;;;;;;;6.45;1.98;;;19.70;62.40;;;;;;5071298;28;20024;-60
2021/06/16 01:11:57;;;;;;;6.13;2.03;;;19.70;62.40;;;;;;5071177;28;20051;-60
2021/06/16 01:14:35;;;;;;;7.13;2.30;;;19.50;63.00;;;;;;5070990;28;20024;-60
2021/06/16 01:17:04;;;;;;;8.52;2.63;;;19.40;63.40;;;;;;5053241;28;20071;-59
2021/06/16 01:19:50;;;;;;;7.38;2.67;;;19.30;64.10;;;;;;5052865;28;20544;-59
2021/06/16 01:22:37;;;;;;;9.88;2.70;;;19.20;63.90;;;;;;5053156;28;20514;-60
2021/06/16 01:25:24;;;;;;;7.30;2.33;;;19.00;64.50;;;;;;5070613;28;20490;-60
2021/06/16 01:27:52;;;;;;;7.85;2.90;;;19.00;64.80;;;;;;5071033;28;20025;-60
2021/06/16 01:30:18;;;;;;;7.75;2.50;;;19.00;64.80;;;;;;5071069;28;20104;-61
2021/06/16 01:32:46;;;;;;;8.90;2.70;;;18.90;65.00;;;;;;5070933;28;20699;-61
2021/06/16 01:35:12;;;;;;;7.35;2.80;;;18.90;64.70;;;;;;5070771;28;20024;-60
2021/06/16 01:37:39;;;;;;;6.90;2.70;;;18.80;64.90;;;;;;5052780;28;20039;-60
2021/06/16 01:40:05;;;;;;;7.22;2.70;;;18.80;65.40;;;;;;5070990;28;20108;-60
2021/06/16 01:42:32;;;;;;;6.20;2.60;;;18.80;65.70;;;;;;5070900;28;20094;-60
2021/06/16 01:44:59;;;;;;;9.25;2.83;;;18.70;65.80;;;;;;5070512;28;20039;-60
2021/06/16 01:47:25;;;;;;;5.90;2.60;;;18.90;66.20;;;;;;5071493;28;20025;-60
2021/06/16 01:49:57;;;;;;;7.63;2.80;;;18.70;65.90;;;;;;5074494;28;20390;-60
2021/06/16 01:52:25;;;;;;;7.15;2.80;;;18.70;65.70;;;;;;5073479;28;20029;-60
2021/06/16 01:54:53;;;;;;;8.07;2.60;;;18.60;66.10;;;;;;5074069;28;20505;-62
2021/06/16 01:57:20;;;;;;;8.60;2.70;;;18.70;66.10;;;;;;5056281;28;20020;-60
2021/06/16 01:59:47;;;;;;;6.10;2.35;;;18.80;65.90;;;;;;5074104;28;20103;-60
2021/06/16 02:02:13;;;;;;;9.75;2.50;;;18.90;65.30;;;;;;5056337;28;20478;-61
2021/06/16 02:04:38;;;;;;;5.65;2.15;;;19.00;65.30;;;;;;5073907;28;20043;-60
2021/06/16 02:07:12;;;;;;;5.57;2.53;;;19.00;65.30;;;;;;5074157;28;20158;-61
2021/06/16 02:09:39;;;;;;;5.55;2.17;;;19.10;64.90;;;;;;5073960;28;20028;-60
2021/06/16 02:12:10;;;;;;;5.75;2.20;;;19.10;64.60;;;;;;5056117;28;20096;-60
2021/06/16 02:14:36;;;;;;;5.70;2.28;;;19.10;64.90;;;;;;5066726;28;20017;-60
2021/06/16 02:17:08;;;;;;;6.95;2.47;;;19.10;64.70;;;;;;5055440;28;20035;-60
2021/06/16 02:19:36;;;;;;;7.22;2.33;;;19.10;64.70;;;;;;5051676;28;20111;-60
2021/06/16 02:22:04;;;;;;;6.60;2.25;;;19.10;64.60;;;;;;5073895;28;20547;-60
2021/06/16 02:24:30;;;;;;;6.95;2.30;;;18.90;65.30;;;;;;5073571;28;20485;-61
2021/06/16 02:26:56;;;;;;;7.70;2.67;;;18.70;65.90;;;;;;5073849;28;20032;-60
2021/06/16 02:29:23;;;;;;;9.30;3.00;;;18.50;66.70;;;;;;5073545;28;20028;-60
2021/06/16 02:31:49;;;;;;;5.97;2.50;;;18.50;66.20;;;;;;5055528;28;20029;-60
2021/06/16 02:34:15;;;;;;;9.90;2.90;;;18.10;67.50;;;;;;5073394;28;20539;-59
2021/06/16 02:36:45;;;;;;;8.27;2.97;;;18.00;68.40;;;;;;5073596;28;20440;-60
2021/06/16 02:39:17;;;;;;;8.18;3.17;;;17.80;68.90;;;;;;5072941;28;20029;-59
2021/06/16 02:41:43;;;;;;;8.02;2.72;;;17.80;69.30;;;;;;5074946;28;20029;-60
2021/06/16 02:44:10;;;;;;;6.47;2.63;;;17.70;69.60;;;;;;5054918;28;20028;-60
2021/06/16 02:46:37;;;;;;;8.32;2.72;;;17.60;69.90;;;;;;5073456;28;20119;-60
2021/06/16 02:49:08;;;;;;;7.22;2.65;;;17.80;69.60;;;;;;5055063;28;20028;-60
2021/06/16 02:51:37;;;;;;;6.80;2.30;;;18.00;68.70;;;;;;5073387;28;20032;-60
2021/06/16 02:54:09;;;;;;;7.38;2.20;;;18.30;68.20;;;;;;5054968;28;20115;-61
2021/06/16 02:56:37;;;;;;;8.50;2.58;;;18.40;67.60;;;;;;5055306;28;20114;-60
2021/06/16 02:59:03;;;;;;;7.53;2.65;;;18.50;67.10;;;;;;5072685;28;20024;-60
2021/06/16 03:01:29;;;;;;;7.22;2.63;;;18.60;66.60;;;;;;5073115;28;20031;-60
2021/06/16 03:03:55;;;;;;;7.38;2.80;;;18.60;66.50;;;;;;5072786;28;20024;-60
2021/06/16 03:06:23;;;;;;;9.35;2.70;;;18.60;66.60;;;;;;5072982;28;20658;-60
2021/06/16 03:08:51;;;;;;;6.22;2.42;;;18.60;66.50;;;;;;5072419;28;20064;-60
2021/06/16 03:11:18;;;;;;;5.78;2.47;;;18.60;66.50;;;;;;5072869;28;20024;-60
2021/06/16 03:13:46;;;;;;;9.95;2.70;;;18.60;66.30;;;;;;5072236;28;20482;-59
2021/06/16 03:16:14;;;;;;;7.95;2.97;;;18.60;66.40;;;;;;5054852;28;20025;-59
2021/06/16 03:18:40;;;;;;;7.05;2.38;;;18.60;66.20;;;;;;5072678;28;20028;-60
2021/06/16 03:21:06;;;;;;;7.40;2.92;;;18.60;66.40;;;;;;5072647;28;20028;-60
2021/06/16 03:23:32;;;;;;;6.00;2.33;;;18.60;66.40;;;;;;5072381;28;20101;-60
2021/06/16 03:25:58;;;;;;;8.95;2.92;;;18.60;66.50;;;;;;5054807;28;20111;-60
2021/06/16 03:28:26;;;;;;;8.00;2.92;;;18.60;66.30;;;;;;5072604;28;20081;-59
2021/06/16 03:30:55;;;;;;;5.80;2.15;;;18.70;66.30;;;;;;5054682;28;20024;-60
2021/06/16 03:33:21;;;;;;;7.10;2.63;;;18.60;66.60;;;;;;5071335;28;20078;-60
2021/06/16 03:35:47;;;;;;;6.10;2.60;;;18.60;66.60;;;;;;5072321;28;20027;-60
2021/06/16 03:38:14;;;;;;;6.07;2.33;;;18.60;66.50;;;;;;5071641;28;20032;-60
2021/06/16 03:40:42;;;;;;;5.90;2.70;;;18.50;66.70;;;;;;5072346;28;20100;-60
2021/06/16 03:43:08;;;;;;;7.55;2.70;;;18.60;66.80;;;;;;5053859;28;20021;-60
2021/06/16 03:45:35;;;;;;;9.32;2.78;;;18.60;66.70;;;;;;5071742;28;20363;-60
2021/06/16 03:48:03;;;;;;;5.32;2.83;;;18.60;66.50;;;;;;5072313;28;20020;-60
2021/06/16 03:50:30;;;;;;;7.72;2.70;;;18.70;66.40;;;;;;5072081;28;20021;-61
2021/06/16 03:52:57;;;;;;;7.47;3.30;;;18.70;66.00;;;;;;5072101;28;20084;-61
2021/06/16 03:55:23;;;;;;;9.65;2.88;;;18.60;66.20;;;;;;5071377;28;20028;-58
2021/06/16 03:57:49;;;;;;;6.43;2.50;;;18.70;66.60;;;;;;5072056;28;20028;-60
2021/06/16 04:00:15;;;;;;;6.68;2.30;;;18.70;66.20;;;;;;5071193;28;20428;-60
2021/06/16 04:02:41;;;;;;;9.25;2.67;;;18.90;66.10;;;;;;5070896;28;20508;-59
2021/06/16 04:05:08;;;;;;;9.25;2.80;;;18.80;66.10;;;;;;5049764;28;20032;-60
2021/06/16 04:07:35;;;;;;;6.65;2.60;;;18.70;66.40;;;;;;5053720;28;20516;-60
2021/06/16 04:10:01;;;;;;;8.27;2.35;;;18.60;66.70;;;;;;5071176;28;20454;-61
2021/06/16 04:12:28;;;;;;;8.07;3.00;;;18.40;67.40;;;;;;5070733;28;20086;-60
2021/06/16 04:14:53;;;;;;;5.40;2.58;;;18.20;68.30;;;;;;5069199;28;20025;-60
2021/06/16 04:17:20;;;;;;;9.73;2.42;;;18.30;68.20;;;;;;5067223;28;20435;-60
2021/06/16 04:19:46;;;;;;;6.40;2.45;;;18.40;67.90;;;;;;5053063;28;20401;-60
2021/06/16 04:22:14;;;;;;;7.53;2.45;;;18.40;68.00;;;;;;5058285;28;20379;-60
2021/06/16 04:24:40;;;;;;;6.85;2.63;;;18.50;67.70;;;;;;5065337;28;20058;-60
2021/06/16 04:27:06;;;;;;;5.85;2.40;;;18.50;67.90;;;;;;5071355;28;20315;-65
2021/06/16 04:29:32;;;;;;;9.00;2.72;;;18.50;68.70;;;;;;5044597;28;20029;-60
2021/06/16 04:31:58;;;;;;;6.75;2.20;;;18.60;68.40;;;;;;5051578;28;20025;-60
2021/06/16 04:34:23;;;;;;;8.98;2.22;;;18.70;68.20;;;;;;5063555;28;20486;-61
2021/06/16 04:36:49;;;;;;;5.68;2.42;;;18.80;68.80;;;;;;5069324;28;20469;-58
2021/06/16 04:39:15;;;;;;;8.77;2.00;;;18.90;67.90;;;;;;5059294;28;20028;-60
2021/06/16 04:41:41;;;;;;;5.63;1.88;;;18.90;67.60;;;;;;5059170;28;20031;-60
2021/06/16 04:44:06;;;;;;;6.15;2.00;;;19.00;68.10;;;;;;5064446;28;20024;-60
2021/06/16 04:46:32;;;;;;;5.72;2.13;;;19.10;68.10;;;;;;5061404;28;20082;-60
2021/06/16 04:48:57;;;;;;;8.65;2.45;;;19.10;67.70;;;;;;5068425;28;20115;-59
2021/06/16 04:51:23;;;;;;;6.43;2.13;;;19.10;67.50;;;;;;5065093;28;20024;-60
2021/06/16 04:53:48;;;;;;;8.75;2.15;;;19.20;67.40;;;;;;5067414;28;20033;-63
2021/06/16 04:56:14;;;;;;;5.38;1.90;;;19.20;67.50;;;;;;5070987;28;20027;-60
2021/06/16 04:58:40;;;;;;;7.32;2.40;;;19.30;67.40;;;;;;5053300;28;20036;-61
2021/06/16 05:01:05;;;;;;;8.45;2.00;;;19.30;67.50;;;;;;5070324;28;20025;-61
2021/06/16 05:03:31;;;;;;;6.82;1.60;;;19.30;68.80;;;;;;5062593;28;20032;-61
2021/06/16 05:05:56;;;;;;;6.57;2.20;;;19.40;68.20;;;;;;5068945;28;20402;-61
2021/06/16 05:08:22;;;;;;;9.07;2.80;;;19.40;68.80;;;;;;5070520;28;20123;-61
2021/06/16 05:10:47;;;;;;;8.65;2.38;;;19.50;68.60;;;;;;5071257;28;20024;-66
2021/06/16 05:13:19;;;;;;;10.85;2.47;;;19.50;68.60;;;;;;5053103;28;20110;-65
2021/06/16 05:15:44;;;;;;;13.50;2.30;;;19.50;68.90;;;;;;5053752;28;20104;-66
2021/06/16 05:18:10;;;;;;;7.93;2.70;;;19.60;69.90;;;;;;5071136;28;20105;-66
2021/06/16 05:20:36;;;;;;;11.07;3.10;;;19.60;70.20;;;;;;5053231;28;20031;-68
2021/06/16 05:23:03;;;;;;;9.43;3.10;;;19.70;70.20;;;;;;5074403;28;20385;-65
2021/06/16 05:25:28;;;;;;;8.43;2.83;;;19.70;69.90;;;;;;5056953;28;20024;-62
2021/06/16 05:27:54;;;;;;;11.00;3.00;;;19.70;70.30;;;;;;5056939;28;20034;-61
2021/06/16 05:30:20;;;;;;;8.05;2.88;;;19.70;70.20;;;;;;5073804;28;20086;-62
2021/06/16 05:32:46;;;;;;;7.30;2.35;;;19.70;70.10;;;;;;5055376;28;20078;-61
2021/06/16 05:35:13;;;;;;;8.27;2.20;;;19.80;70.10;;;;;;5055295;28;20024;-62
2021/06/16 05:37:38;;;;;;;7.38;2.60;;;19.80;69.70;;;;;;5073963;28;20028;-61
2021/06/16 05:40:06;;;;;;;7.32;2.35;;;19.80;69.40;;;;;;5074309;28;20039;-64
2021/06/16 05:42:31;;;;;;;7.68;2.25;;;19.90;69.00;;;;;;5074132;28;20025;-64
2021/06/16 05:44:57;;;;;;;5.43;2.10;;;19.90;68.70;;;;;;5056192;28;20100;-65
2021/06/16 05:47:23;;;;;;;6.50;1.80;;;19.90;68.40;;;;;;5074451;28;20093;-62
2021/06/16 05:49:49;;;;;;;7.30;2.38;;;20.00;68.00;;;;;;5074480;28;20402;-62
2021/06/16 05:52:14;;;;;;;6.72;2.15;;;20.10;68.30;;;;;;5074361;28;20032;-62
2021/06/16 05:54:40;;;;;;;7.75;2.00;;;20.10;67.50;;;;;;5074075;28;20033;-60
2021/06/16 05:57:06;;;;;;;5.70;1.77;;;20.20;67.80;;;;;;5055744;28;20036;-61
2021/06/16 05:59:33;;;;;;;8.02;2.03;;;20.20;66.90;;;;;;5036665;28;20035;-62
2021/06/16 06:02:00;;;;;;;6.55;1.88;;;20.30;66.80;;;;;;5054085;28;20020;-61
2021/06/16 06:04:25;;;;;;;6.15;2.25;;;20.40;66.30;;;;;;5053444;28;20055;-65
2021/06/16 06:06:51;;;;;;;5.30;1.83;;;20.50;66.10;;;;;;5036283;28;20113;-65
2021/06/16 06:09:17;;;;;;;6.22;2.17;;;20.60;66.00;;;;;;5054033;28;20029;-62
2021/06/16 06:11:42;;;;;;;4.50;1.75;;;20.60;65.70;;;;;;5053781;28;20025;-62
2021/06/16 06:14:08;;;;;;;6.18;1.98;;;20.70;64.80;;;;;;5053703;28;20435;-62
2021/06/16 06:16:33;;;;;;;3.70;1.40;;;20.70;64.70;;;;;;5053946;28;20021;-61
2021/06/16 06:18:59;;;;;;;4.78;1.70;;;20.80;64.20;;;;;;5053889;28;20025;-61
2021/06/16 06:21:30;;;;;;;4.63;1.38;;;20.90;63.90;;;;;;5035928;28;20053;-61
2021/06/16 06:23:56;;;;;;;5.32;1.73;;;20.90;63.20;;;;;;5053935;28;20025;-62
2021/06/16 06:26:22;;;;;;;5.22;1.55;;;21.00;63.10;;;;;;5038300;28;20482;-61
2021/06/16 06:28:47;;;;;;;6.53;1.73;;;21.10;62.60;;;;;;5073549;28;20029;-62
2021/06/16 06:31:13;;;;;;;5.35;1.63;;;21.10;62.50;;;;;;5055815;28;20107;-61
2021/06/16 06:33:38;;;;;;;4.10;1.50;;;21.10;62.40;;;;;;5072450;28;20028;-61
2021/06/16 06:36:04;;;;;;;5.07;1.63;;;21.20;62.10;;;;;;5073664;28;20046;-61
2021/06/16 06:38:30;;;;;;;3.85;1.35;;;21.20;62.00;;;;;;5073497;28;20029;-61
2021/06/16 06:40:55;;;;;;;4.53;1.50;;;21.30;61.90;;;;;;5073572;28;20078;-62
2021/06/16 06:43:21;;;;;;;5.28;1.58;;;21.30;61.50;;;;;;5073275;28;20037;-61
2021/06/16 06:45:46;;;;;;;4.53;1.58;;;21.40;61.30;;;;;;5055468;28;20025;-61
2021/06/16 06:48:12;;;;;;;6.40;1.92;;;21.40;61.20;;;;;;5055482;28;20020;-62
2021/06/16 06:50:38;;;;;;;4.40;1.55;;;21.40;61.20;;;;;;5055342;28;20035;-62
2021/06/16 06:53:03;;;;;;;3.78;1.40;;;21.50;61.00;;;;;;5055349;28;20116;-62
2021/06/16 06:55:29;;;;;;;3.50;1.40;;;21.50;60.70;;;;;;5072754;28;20482;-61
2021/06/16 06:57:55;;;;;;;4.10;1.60;;;21.60;60.50;;;;;;5055240;28;20028;-61
2021/06/16 07:00:21;;;;;;;3.40;1.42;;;21.70;60.20;;;;;;5072960;28;20078;-61
2021/06/16 07:02:47;;;;;;;5.03;1.60;;;21.70;60.00;;;;;;5073190;28;20052;-61
2021/06/16 07:05:13;;;;;;;4.20;1.52;;;21.70;59.90;;;;;;5072677;28;20028;-62
2021/06/16 07:07:38;;;;;;;5.53;1.48;;;21.80;59.70;;;;;;5055113;28;20033;-61
2021/06/16 07:10:04;;;;;;;3.15;1.42;;;21.80;59.70;;;;;;5072943;28;20076;-61
2021/06/16 07:12:30;;;;;;;4.43;1.58;;;21.90;59.60;;;;;;5054891;28;20402;-61
2021/06/16 07:14:55;;;;;;;3.75;1.30;;;21.90;59.40;;;;;;5072510;28;20020;-62
2021/06/16 07:17:22;;;;;;;3.67;1.67;;;22.00;59.20;;;;;;5072682;28;20474;-61
2021/06/16 07:19:48;;;;;;;5.13;1.50;;;22.10;59.10;;;;;;5054922;28;20379;-61
2021/06/16 07:22:14;;;;;;;3.53;1.50;;;22.10;58.80;;;;;;5054855;28;20021;-61
2021/06/16 07:24:40;;;;;;;4.22;1.58;;;22.20;58.70;;;;;;5072161;28;20075;-61
2021/06/16 07:27:06;;;;;;;5.32;1.80;;;22.20;58.50;;;;;;5072478;28;20457;-61
2021/06/16 07:29:31;;;;;;;4.45;1.67;;;22.30;58.60;;;;;;5072568;28;20081;-61
2021/06/16 07:31:57;;;;;;;4.85;1.77;;;22.30;58.20;;;;;;5072169;28;20474;-62
2021/06/16 07:34:22;;;;;;;5.75;1.83;;;22.40;58.50;;;;;;5072262;28;20378;-61
2021/06/16 07:36:48;;;;;;;3.95;1.50;;;22.40;58.30;;;;;;5054547;28;20050;-61
2021/06/16 07:39:14;;;;;;;3.58;1.48;;;22.50;57.70;;;;;;5072316;28;20545;-61
2021/06/16 07:41:39;;;;;;;4.32;1.40;;;22.60;57.40;;;;;;5054667;28;20428;-62
2021/06/16 07:44:05;;;;;;;3.75;1.42;;;22.60;57.20;;;;;;5071956;28;20020;-62
2021/06/16 07:46:31;;;;;;;3.72;1.50;;;22.70;57.20;;;;;;5072288;28;20051;-62
2021/06/16 07:48:56;;;;;;;4.07;1.55;;;22.70;57.00;;;;;;5071818;28;20039;-62
2021/06/16 07:51:22;;;;;;;5.88;1.35;;;22.70;56.90;;;;;;5072187;28;20028;-62
2021/06/16 07:53:47;;;;;;;3.38;1.33;;;22.80;57.00;;;;;;5053573;28;20124;-62
2021/06/16 07:56:13;;;;;;;3.97;1.55;;;22.70;56.90;;;;;;5072182;28;20020;-62
2021/06/16 07:58:39;;;;;;;5.30;1.60;;;22.80;56.90;;;;;;5071974;28;20048;-61
2021/06/16 08:01:04;;;;;;;3.15;1.23;;;22.80;56.70;;;;;;5054117;28;20021;-61
2021/06/16 08:03:30;;;;;;;3.80;1.45;;;22.90;56.50;;;;;;5053816;28;20700;-62
2021/06/16 08:05:56;;;;;;;3.38;1.65;;;23.00;56.50;;;;;;5072055;28;20054;-62
2021/06/16 08:08:23;;;;;;;3.63;1.33;;;23.00;56.40;;;;;;5071887;28;20502;-62
2021/06/16 08:10:49;;;;;;;3.45;1.30;;;23.10;55.90;;;;;;5071939;28;20028;-62
2021/06/16 08:13:15;;;;;;;4.72;1.60;;;23.10;55.80;;;;;;5053024;28;20439;-62
2021/06/16 08:15:40;;;;;;;2.83;1.20;;;23.10;56.10;;;;;;5053687;28;20052;-61
2021/06/16 08:18:06;;;;;;;3.67;1.50;;;23.20;55.70;;;;;;5071503;28;20107;-61
2021/06/16 08:20:32;;;;;;;3.65;1.58;;;23.30;55.60;;;;;;5071872;28;20449;-62
2021/06/16 08:22:58;;;;;;;1.95;1.20;;;23.30;55.20;;;;;;5071742;28;20035;-62
2021/06/16 08:25:23;;;;;;;2.42;1.35;;;23.40;55.10;;;;;;5071445;28;20051;-62
2021/06/16 08:27:49;;;;;;;3.55;1.50;;;23.30;55.10;;;;;;5053632;28;20032;-62
2021/06/16 08:30:16;;;;;;;4.03;1.30;;;23.40;55.20;;;;;;5071711;28;20025;-61
2021/06/16 08:32:43;;;;;;;3.33;1.48;;;23.30;55.30;;;;;;5071652;28;20039;-62
2021/06/16 08:35:10;;;;;;;3.25;1.40;;;23.30;55.40;;;;;;5053319;28;20055;-62
2021/06/16 08:37:35;;;;;;;3.13;1.35;;;23.40;55.30;;;;;;5071477;28;20031;-64
2021/06/16 08:40:01;;;;;;;3.95;1.63;;;23.50;55.20;;;;;;5071160;28;20103;-64
2021/06/16 08:42:27;;;;;;;4.05;1.40;;;23.50;55.10;;;;;;5095561;22;20052;-67
2021/06/16 08:44:55;;;;;;;2.22;1.10;;;23.60;54.90;;;;;;5086118;28;20032;-68
2021/06/16 08:47:22;;;;;;;4.15;1.40;;;23.60;54.70;;;;;;5071536;28;20059;-68
2021/06/16 08:49:48;;;;;;;3.63;1.40;;;23.70;54.70;;;;;;5071984;28;20363;-68
2021/06/16 08:52:14;;;;;;;3.42;1.48;;;23.70;54.50;;;;;;5071969;28;20037;-68
2021/06/16 08:54:40;;;;;;;4.78;1.90;;;23.70;54.50;;;;;;5071256;28;20509;-67
2021/06/16 08:57:06;;;;;;;5.05;1.60;;;23.70;54.40;;;;;;5073709;28;20107;-68
2021/06/16 08:59:31;;;;;;;3.88;1.52;;;23.80;54.50;;;;;;5092690;28;20036;-67
2021/06/16 09:01:57;;;;;;;3.47;1.77;;;23.80;54.60;;;;;;5095692;28;20035;-67
2021/06/16 09:04:45;;;;;;;3.22;1.50;;;23.90;54.20;;;;;;5095452;28;20108;-67
2021/06/16 09:07:16;;;;;;;3.60;1.50;;;23.90;54.10;;;;;;5095781;28;20502;-67
2021/06/16 09:09:42;;;;;;;3.67;1.60;;;24.00;54.00;;;;;;5076712;28;20512;-67
2021/06/16 09:12:09;;;;;;;3.63;1.48;;;24.10;54.10;;;;;;5075045;28;20115;-67
2021/06/16 09:14:35;;;;;;;3.97;1.45;;;24.10;53.90;;;;;;5075032;28;20024;-67
2021/06/16 09:17:02;;;;;;;3.38;1.60;;;24.10;53.90;;;;;;5073936;28;20024;-68
2021/06/16 09:19:36;;;;;;;4.68;1.60;;;24.20;53.70;;;;;;5074591;28;20446;-67
2021/06/16 09:22:06;;;;;;;3.05;1.50;;;24.30;53.80;;;;;;5090672;28;20485;-68
2021/06/16 09:24:52;;;;;;;3.13;1.60;;;24.20;53.50;;;;;;5074653;28;20017;-69
2021/06/16 09:27:48;;;;;;;3.75;1.60;;;24.20;53.50;;;;;;5075050;28;20024;-68
2021/06/16 09:30:30;;;;;;;4.70;1.73;;;24.30;53.30;;;;;;5085055;28;20019;-66
2021/06/16 09:32:59;;;;;;;4.00;1.60;;;24.30;53.80;;;;;;5094983;28;20031;-68
2021/06/16 09:35:27;;;;;;;2.95;1.67;;;24.30;53.70;;;;;;5094908;28;20482;-68
2021/06/16 09:37:54;;;;;;;2.92;1.65;;;24.30;53.90;;;;;;5095058;28;20024;-66
2021/06/16 09:40:26;;;;;;;3.40;1.80;;;24.40;53.50;;;;;;5095040;28;20035;-68
2021/06/16 09:43:00;;;;;;;4.40;1.80;;;24.50;53.40;;;;;;5094770;28;20036;-67
2021/06/16 09:45:27;;;;;;;4.68;1.95;;;24.50;53.30;;;;;;5110264;28;20025;-69
2021/06/16 09:47:53;;;;;;;4.32;1.90;;;24.60;53.30;;;;;;5094923;28;20477;-68
2021/06/16 09:50:24;;;;;;;4.82;2.05;;;24.60;53.20;;;;;;5094826;28;20028;-67
2021/06/16 09:52:51;;;;;;;;;;;24.60;54.00;;;;;;5095133;28;20535;-66
2021/06/16 09:55:27;;;;;;;6.38;2.53;;;24.60;53.70;;;;;;5094426;28;19904;-67
2021/06/16 09:58:09;;;;;;;4.70;2.38;;;24.70;53.50;;;;;;5110240;28;20024;-69
2021/06/16 10:00:38;;;;;;;5.53;2.50;;;24.80;53.60;;;;;;5106674;28;20481;-68
2021/06/16 10:03:11;;;;;;;6.07;2.88;;;24.80;53.80;;;;;;5074190;28;20028;-67
2021/06/16 10:06:04;;;;;;;5.15;2.60;;;24.80;53.70;;;;;;5072589;28;20027;-69
2021/06/16 10:08:32;;;;;;;6.72;3.05;;;25.00;54.50;;;;;;5063523;28;20098;-66
2021/06/16 10:10:58;;;;;;;8.02;3.35;;;25.10;53.60;;;;;;5073456;28;20489;-65
2021/06/16 10:13:26;;;;;;;5.60;3.28;;;25.20;53.60;;;;;;5089407;28;20472;-68
2021/06/16 10:15:53;;;;;;;6.68;3.40;;;25.30;53.70;;;;;;5089713;28;20025;-67
2021/06/16 10:18:20;;;;;;;6.18;3.38;;;25.40;53.20;;;;;;5074066;28;20020;-66
2021/06/16 10:20:46;;;;;;;7.00;3.08;;;25.30;53.10;;;;;;5073914;28;20078;-68
2021/06/16 10:23:11;;;;;;;6.63;3.42;;;25.20;53.30;;;;;;5073851;28;20029;-64
2021/06/16 10:25:37;;;;;;;7.40;3.90;;;25.30;53.40;;;;;;5088758;28;20035;-67
2021/06/16 10:28:04;;;;;;;7.88;3.92;;;25.40;53.20;;;;;;5073897;28;20051;-66
2021/06/16 10:30:33;;;;;;;6.20;3.47;;;25.50;53.30;;;;;;5073770;28;20107;-66
2021/06/16 10:32:59;;;;;;;8.68;4.10;;;25.60;53.00;;;;;;5073696;28;20023;-70
2021/06/16 10:35:34;;;;;;;7.70;3.70;;;25.70;53.10;;;;;;5073509;28;20017;-68
2021/06/16 10:38:18;;;;;;;6.30;3.65;;;25.80;53.40;;;;;;5073720;28;20131;-67
2021/06/16 10:40:52;;;;;;;6.65;4.25;;;25.80;53.10;;;;;;5073397;28;20028;-67
2021/06/16 10:43:23;;;;;;;8.20;3.97;;;25.90;53.00;;;;;;5088985;28;20039;-67
2021/06/16 10:45:54;;;;;;;8.23;3.90;;;25.90;52.70;;;;;;5089181;28;20116;-66
2021/06/16 10:48:20;;;;;;;7.20;4.50;;;25.90;52.80;;;;;;5073493;28;20021;-67
2021/06/16 10:50:46;;;;;;;6.30;4.65;;;25.90;53.20;;;;;;5073374;28;20036;-68
2021/06/16 10:53:24;;;;;;;7.38;3.88;;;26.00;53.20;;;;;;5073318;28;20021;-67
2021/06/16 10:55:52;;;;;;;9.35;4.40;;;25.90;53.30;;;;;;5074481;28;20021;-67
2021/06/16 10:58:19;;;;;;;7.97;4.57;;;25.80;53.20;;;;;;5073262;28;20016;-68
2021/06/16 11:01:13;;;;;;;7.38;4.18;;;25.70;53.60;;;;;;5088476;28;20016;-67
2021/06/16 11:03:54;;;;;;;8.35;4.10;;;25.80;54.10;;;;;;5072936;28;20025;-68
2021/06/16 11:06:37;;;;;;;5.85;3.90;;;25.80;54.10;;;;;;5071992;28;20020;-67
2021/06/16 11:09:09;;;;;;;6.60;4.10;;;25.80;54.00;;;;;;5073000;28;20524;-64
2021/06/16 11:11:49;;;;;;;7.97;4.40;;;25.70;54.00;;;;;;5072748;28;20028;-71
2021/06/16 11:14:36;;;;;;;8.15;4.57;;;25.70;54.40;;;;;;5072706;28;20078;-68
2021/06/16 11:17:04;;;;;;;9.07;4.70;;;25.80;54.90;;;;;;5072817;28;20021;-67
2021/06/16 11:19:35;;;;;;;8.63;4.57;;;25.80;54.80;;;;;;5072606;28;20025;-65
2021/06/16 11:22:11;;;;;;;8.02;4.57;;;25.70;55.10;;;;;;5076817;28;20119;-68
2021/06/16 11:25:08;;;;;;;7.32;4.60;;;25.60;55.30;;;;;;5092807;28;20025;-66
2021/06/16 11:27:54;;;;;;;6.93;4.40;;;25.40;55.90;;;;;;5081991;28;20032;-67
2021/06/16 11:30:29;;;;;;;9.15;4.72;;;25.00;57.30;;;;;;5088304;28;20017;-67
2021/06/16 11:33:32;;;;;;;6.90;4.40;;;24.50;58.70;;;;;;5072568;28;20028;-66
2021/06/16 11:36:06;;;;;;;9.02;4.70;;;24.10;59.60;;;;;;5050801;28;20032;-67
2021/06/16 11:38:51;;;;;;;8.20;4.85;;;23.90;60.70;;;;;;5072511;28;20073;-68
2021/06/16 11:41:25;;;;;;;9.18;5.15;;;23.80;61.30;;;;;;5072313;28;20036;-65
2021/06/16 11:44:07;;;;;;;9.90;5.07;;;23.70;62.00;;;;;;5072092;28;20111;-67
2021/06/16 11:46:39;;;;;;;8.48;4.28;;;23.70;62.30;;;;;;5071140;28;20028;-66
2021/06/16 11:49:22;;;;;;;7.93;4.60;;;23.60;62.40;;;;;;5088202;28;20374;-67
2021/06/16 11:51:51;;;;;;;6.32;4.40;;;23.60;63.00;;;;;;5073354;28;20090;-66
2021/06/16 11:54:24;;;;;;;6.85;4.63;;;23.60;63.10;;;;;;5087312;28;20063;-66
2021/06/16 11:57:09;;;;;;;7.93;4.43;;;23.60;63.20;;;;;;5072272;28;20047;-67
2021/06/16 11:59:44;;;;;;;8.05;4.88;;;23.60;63.80;;;;;;5072166;28;20047;-66
2021/06/16 12:02:18;;;;;;;7.65;4.82;;;23.50;63.40;;;;;;5072056;28;20044;-66
2021/06/16 12:04:54;;;;;;;7.95;4.95;;;23.50;63.60;;;;;;5087193;28;20078;-66
2021/06/16 12:07:32;;;;;;;8.13;4.80;;;23.50;63.40;;;;;;5072029;28;20025;-66
2021/06/16 12:10:09;;;;;;;8.95;5.25;;;23.40;63.90;;;;;;5070743;28;20116;-69
2021/06/16 12:12:55;;;;;;;8.30;4.63;;;23.50;64.30;;;;;;5071347;28;20024;-66
2021/06/16 12:15:29;;;;;;;10.57;5.05;;;23.60;65.10;;;;;;5089851;28;20451;-67
2021/06/16 12:18:00;;;;;;;9.95;5.05;;;23.60;64.60;;;;;;5092089;28;20020;-65
2021/06/16 12:20:30;;;;;;;9.50;5.13;;;23.50;65.40;;;;;;5072018;28;20052;-69
2021/06/16 12:22:57;;;;;;;18.85;6.05;;;23.60;65.20;;;;;;5071786;28;20099;-68
2021/06/16 12:25:29;;;;;;;17.20;5.88;;;23.60;65.70;;;;;;5071456;28;20430;-67
2021/06/16 12:27:56;;;;;;;13.50;5.25;;;23.60;65.90;;;;;;5071892;28;20082;-65
2021/06/16 12:30:24;;;;;;;13.43;5.55;;;23.70;65.50;;;;;;5071679;28;20035;-65
2021/06/16 12:33:23;;;;;;;12.23;5.88;;;23.60;65.90;;;;;;5086505;28;20078;-65
2021/06/16 12:36:07;;;;;;;10.93;5.57;;;23.70;68.00;;;;;;5070418;28;20051;-68
2021/06/16 12:38:42;;;;;;;12.45;5.80;;;23.80;66.70;;;;;;5071671;28;20070;-66
2021/06/16 12:41:27;;;;;;;13.93;5.68;;;23.80;67.00;;;;;;5070188;28;20090;-66
2021/06/16 12:44:10;;;;;;;10.60;5.68;;;23.70;66.50;;;;;;5071364;28;20021;-65
2021/06/16 12:46:55;;;;;;;10.18;5.75;;;23.60;66.60;;;;;;5075039;28;20024;-63
2021/06/16 12:49:21;;;;;;;10.43;5.75;;;23.60;66.90;;;;;;5091783;28;20032;-65
2021/06/16 12:52:03;;;;;;;10.85;5.93;;;23.60;66.70;;;;;;5091285;28;20035;-66
2021/06/16 12:54:40;;;;;;;10.73;5.68;;;23.50;67.10;;;;;;5091502;28;20024;-65